Aviosuperficie AS77

IT-0302 · Friuli Venezia Giulia, 意大利

2022年10月2日

时间 代码 天气 温度 能见度 天花板 METAR/SPECI
13:50
V
21 °C 10 km+ - 190° 190° 9 kt METAR LIPQ 021150Z AUTO 19009KT 140V210 9999 NCD 21/15 Q1019
13:20
M
21 °C 10 km+ 2.400 ft 160° 160° 8 kt METAR LIPQ 021120Z AUTO 16008KT 150V210 9999 BKN024/// 21/15 Q1019
12:50
M
21 °C 10 km+ 2.500 ft 160° 160° 5 kt METAR LIPQ 021050Z AUTO 16005KT 130V200 9999 BKN025/// 21/16 Q1019
12:20
M
21 °C 10 km+ 2.500 ft 140° 140° 6 kt METAR LIPQ 021020Z AUTO 14006KT 080V210 9999 BKN025/// 21/15 Q1020
11:50
M
20 °C 10 km+ 2.400 ft 160° 160° 6 kt METAR LIPQ 020950Z AUTO 16006KT 120V230 9999 BKN024/// 20/15 Q1020
11:20
M
20 °C 10 km+ 2.300 ft 140° 140° 7 kt METAR LIPQ 020920Z AUTO 14007KT 9999 BKN023/// 20/15 Q1020
10:50
M
20 °C 10 km+ 2.700 ft 160° 160° 6 kt METAR LIPQ 020850Z AUTO 16006KT 9999 BKN027/// 20/15 Q1020
10:20
M
20 °C 10 km+ 2.600 ft 110° 110° 5 kt METAR LIPQ 020820Z AUTO 11005KT 080V160 9999 BKN026/// 20/14 Q1020
09:50
V
19 °C 10 km+ - 110° 110° 4 kt METAR LIPQ 020750Z AUTO 11004KT 9999 FEW029/// 19/15 Q1020
09:20
V
18 °C 10 km+ - 110° 110° 5 kt METAR LIPQ 020720Z AUTO 11005KT 060V130 9999 NCD 18/15 Q1020
08:50
V
17 °C 10 km+ - Var Var 2 kt METAR LIPQ 020650Z AUTO VRB02KT 9999 NCD 17/14 Q1020
08:20
V
15 °C 10 km+ - 060° 060° 3 kt METAR LIPQ 020620Z AUTO 06003KT 9999 NCD 15/14 Q1020
07:50
V
13 °C 10 km+ - 060° 060° 3 kt METAR LIPQ 020550Z AUTO 06003KT 9999 NCD 13/13 Q1019
07:20
V
12 °C 10 km+ - Var Var 2 kt METAR LIPQ 020520Z AUTO VRB02KT 9999 NCD 12/11 Q1019
06:50
V
13 °C 10 km+ - 040° 040° 2 kt METAR LIPQ 020450Z AUTO 04002KT 9999 NCD 13/12 Q1019
06:20
V
14 °C 10 km+ - 100° 100° 4 kt METAR LIPQ 020420Z AUTO 10004KT 9999 NCD 14/13 Q1019
05:50
V
14 °C 10 km+ - 100° 100° 4 kt METAR LIPQ 020350Z AUTO 10004KT 9999 NCD 14/13 Q1019
05:20
V
13 °C 10 km+ - Var Var 2 kt METAR LIPQ 020320Z AUTO VRB02KT 9999 FEW028/// 13/12 Q1018
04:50
V
13 °C 10 km+ - 040° 040° 3 kt METAR LIPQ 020250Z AUTO 04003KT 020V080 9999 SCT028/// 13/12 Q1018
04:20
V
15 °C 10 km+ - 090° 090° 5 kt METAR LIPQ 020220Z AUTO 09005KT 9999 NCD 15/13 Q1018
03:50
V
14 °C 10 km+ - 110° 110° 5 kt METAR LIPQ 020150Z AUTO 11005KT 9999 NCD 14/12 Q1018
03:20
V
14 °C 10 km+ - 100° 100° 5 kt METAR LIPQ 020120Z AUTO 10005KT 9999 NCD 14/13 Q1018
02:50
V
15 °C 10 km+ - 100° 100° 7 kt METAR LIPQ 020050Z AUTO 10007KT 9999 NCD 15/13 Q1018
02:20
V
14 °C 10 km+ - 100° 100° 5 kt METAR LIPQ 020020Z AUTO 10005KT 9999 FEW034/// 14/13 Q1018
01:50
V
14 °C 10 km+ - 100° 100° 6 kt METAR LIPQ 012350Z AUTO 10006KT 9999 FEW038/// 14/13 Q1017
01:20
V
14 °C 10 km+ - 100° 100° 6 kt METAR LIPQ 012320Z AUTO 10006KT 9999 NCD 14/13 Q1017
00:50
V
14 °C 10 km+ - 100° 100° 5 kt METAR LIPQ 012250Z AUTO 10005KT 9999 NCD 14/14 Q1017
00:20
V
15 °C 10 km+ - 090° 090° 4 kt METAR LIPQ 012220Z AUTO 09004KT 9999 NCD 15/14 Q1016

2022年10月1日

时间 代码 天气 温度 能见度 天花板 METAR/SPECI
23:50
V
14 °C 10 km+ - 100° 100° 4 kt METAR LIPQ 012150Z AUTO 10004KT 9999 NCD 14/13 Q1016
23:20
V
14 °C 10 km+ - Var Var 2 kt METAR LIPQ 012120Z AUTO VRB02KT 9999 NCD 14/13 Q1016
22:50
V
15 °C 10 km+ - 110° 110° 4 kt METAR LIPQ 012050Z AUTO 11004KT 9999 FEW140/// 15/14 Q1016
22:20
V
15 °C 10 km+ 14.000 ft 110° 110° 3 kt METAR LIPQ 012020Z AUTO 11003KT 9999 BKN140/// 15/13 Q1016
21:50
V
15 °C 10 km+ 14.000 ft 100° 100° 3 kt METAR LIPQ 011950Z AUTO 10003KT 9999 BKN140/// 15/14 Q1015
21:20
V
16 °C 10 km+ - 120° 120° 3 kt METAR LIPQ 011920Z AUTO 12003KT 9999 FEW050/// 16/14 Q1015
20:50
V
17 °C 10 km+ 17.000 ft 150° 150° 2 kt METAR LIPQ 011850Z AUTO 15002KT 9999 SCT049/// BKN170/// 17/15 Q1015
20:20
V
17 °C 10 km+ 4.700 ft 120° 120° 4 kt METAR LIPQ 011820Z AUTO 12004KT 9999 BKN047/// 17/15 Q1015
19:50
V
17 °C 10 km+ 4.000 ft 100° 100° 4 kt METAR LIPQ 011750Z AUTO 10004KT 9999 BKN040/// 17/15 Q1014
19:20
V
18 °C 10 km+ - Var Var 3 kt METAR LIPQ 011720Z AUTO VRB03KT 9999 FEW049/// 18/14 Q1014
18:50
V
18 °C 10 km+ - 180° 180° 3 kt METAR LIPQ 011650Z AUTO 18003KT 9999 FEW043/// 18/14 Q1014
18:20
V
19 °C 10 km+ 4.000 ft 210° 210° 5 kt METAR LIPQ 011620Z AUTO 21005KT 9999 BKN040/// 19/14 Q1014
17:50
V
19 °C 10 km+ - 190° 190° 5 kt METAR LIPQ 011550Z AUTO 19005KT 160V230 9999 SCT040/// 19/16 Q1014
17:20
V
19 °C 10 km+ 15.000 ft 190° 190° 6 kt METAR LIPQ 011520Z AUTO 19006KT 9999 SCT036/// BKN150/// 19/15 Q1014
16:50
V
19 °C 10 km+ 15.000 ft 200° 200° 8 kt METAR LIPQ 011450Z AUTO 20008KT 9999 FEW034/// BKN150/// 19/15 Q1014
16:20
V
20 °C 10 km+ 16.000 ft 220° 220° 10 kt METAR LIPQ 011420Z AUTO 22010KT 9999 SCT034/// BKN160/// 20/14 Q1014
15:50
V
20 °C 10 km+ 17.000 ft 220° 220° 10 kt METAR LIPQ 011350Z AUTO 22010KT 9999 FEW025/// BKN170/// 20/14 Q1014
15:20
M
20 °C 10 km+ 2.300 ft 220° 220° 9 kt METAR LIPQ 011320Z AUTO 22009KT 9999 BKN023/// 20/14 Q1014
14:50
V
20 °C 10 km+ - 210° 210° 10 kt METAR LIPQ 011250Z AUTO 21010KT 180V240 9999 FEW022/// 20/15 Q1014
14:20
V
20 °C 10 km+ - 220° 220° 9 kt METAR LIPQ 011220Z AUTO 22009KT 180V250 9999 FEW023/// 20/14 Q1014
13:50
V
20 °C 10 km+ - 210° 210° 10 kt METAR LIPQ 011150Z AUTO 21010KT 9999 FEW200/// 20/14 Q1015
13:20
V
20 °C 10 km+ - 220° 220° 9 kt METAR LIPQ 011120Z AUTO 22009KT 9999 NCD 20/14 Q1015
12:50
V
20 °C 10 km+ - 230° 230° 9 kt METAR LIPQ 011050Z AUTO 23009KT 190V260 9999 FEW027/// 20/14 Q1015
12:20
V
19 °C 10 km+ - 210° 210° 9 kt METAR LIPQ 011020Z AUTO 21009KT 9999 SCT024/// 19/14 Q1015
11:50
V
19 °C 10 km+ - 190° 190° 4 kt METAR LIPQ 010950Z AUTO 19004KT 150V230 9999 FEW019/// 19/14 Q1015
11:20
V
19 °C 10 km+ 3.600 ft 210° 210° 3 kt METAR LIPQ 010920Z AUTO 21003KT 140V260 9999 BKN036/// 19/14 Q1015
10:50
M
18 °C 10 km+ 2.800 ft 250° 250° 5 kt METAR LIPQ 010850Z AUTO 25005KT 9999 OVC028/// 18/14 Q1015
10:20
M
17 °C 10 km+ 2.500 ft 200° 200° 3 kt METAR LIPQ 010820Z AUTO 20003KT 160V250 9999 BKN025/// 17/15 Q1015
09:50
V
17 °C 10 km+ - Var Var 2 kt METAR LIPQ 010750Z AUTO VRB02KT 9999 FEW023/// 17/15 Q1015
09:20
V
16 °C 10 km+ 5.000 ft Var Var 2 kt METAR LIPQ 010720Z AUTO VRB02KT 9999 SCT016/// BKN050/// 16/15 Q1015
08:50
M
15 °C 10 km+ 2.100 ft 270° 270° 6 kt METAR LIPQ 010650Z AUTO 27006KT 9999 FEW003/// SCT011/// BKN021/// 15/14 Q1014
08:20
L
15 °C 10 km+ 200 ft 270° 270° 6 kt METAR LIPQ 010620Z AUTO 27006KT 9999 BKN002/// OVC067/// 15/15 Q1014
07:50
L
16 °C 400 m 200 ft 240° 240° 6 kt METAR LIPQ 010550Z AUTO 24006KT 0400 R09/0600D FG BKN002/// BKN072/// 16/15 Q1013
07:20
V
16 °C 10 km+ 5.700 ft 170° 170° 3 kt METAR LIPQ 010520Z AUTO 17003KT 9999 SCT015/// BKN057/// BKN076/// 16/16 Q1013
06:50
V
16 °C 10 km+ - 110° 110° 5 kt METAR LIPQ 010450Z AUTO 11005KT 9999 FEW017/// SCT075/// 16/15 Q1013
06:20
V
16 °C 10 km+ 5.400 ft 110° 110° 6 kt METAR LIPQ 010420Z AUTO 11006KT 9999 FEW018/// BKN054/// BKN078/// 16/16 Q1012
05:50
V
17 °C 10 km+ 5.000 ft 100° 100° 5 kt METAR LIPQ 010350Z AUTO 10005KT 9999 FEW020/// BKN050/// BKN089/// 17/16 Q1013
05:20
V
17 °C 10 km+ 4.500 ft 110° 110° 5 kt METAR LIPQ 010320Z AUTO 11005KT 9999 FEW020/// BKN045/// BKN092/// 17/16 Q1013
04:50
V
16 °C 10 km+ 5.900 ft 060° 060° 4 kt METAR LIPQ 010250Z AUTO 06004KT 9999 FEW020/// SCT046/// BKN059/// 16/16 Q1013
04:20
V
16 °C 10 km+ 8.400 ft 060° 060° 3 kt METAR LIPQ 010220Z AUTO 06003KT 9999 SCT017/// SCT020/// OVC084/// 16/16 Q1012
03:50
M
16 °C 10 km+ 1.600 ft 050° 050° 3 kt METAR LIPQ 010150Z AUTO 05003KT 010V070 9999 -RA BKN016/// OVC047/// 16/16 Q1012 RERA
03:20
V
16 °C 10 km+ 4.000 ft 050° 050° 4 kt METAR LIPQ 010120Z AUTO 05004KT 9999 -RA FEW002/// BKN040/// BKN095/// 16/15 Q1012
02:50
M
16 °C 10 km+ 1.700 ft 350° 350° 4 kt METAR LIPQ 010050Z AUTO 35004KT 300V020 9999 -RA BKN017/// BKN046/// 16/15 Q1013 RERA
02:20
M
16 °C 10 km+ 1.900 ft Var Var 2 kt METAR LIPQ 010020Z AUTO VRB02KT 9999 BKN019/// 16/16 Q1012
01:50
M
16 °C 10 km+ 2.100 ft Var Var 2 kt METAR LIPQ 302350Z AUTO VRB02KT 9999 OVC021/// 16/15 Q1012 RERA
01:20
M
16 °C 10 km+ 2.300 ft 040° 040° 4 kt METAR LIPQ 302320Z AUTO 04004KT 9999 RA OVC023/// 16/15 Q1012
00:50
M
16 °C 7 km 2.200 ft 040° 040° 3 kt METAR LIPQ 302250Z AUTO 04003KT 010V070 7000 RA BKN022/// OVC072/// 16/15 Q1012
00:20
V
16 °C 10 km+ 6.900 ft 050° 050° 3 kt METAR LIPQ 302220Z AUTO 05003KT 350V110 9999 RA OVC069/// 16/15 Q1012

2022年9月30日

时间 代码 天气 温度 能见度 天花板 METAR/SPECI
23:50
V
16 °C 10 km+ 5.800 ft 050° 050° 3 kt METAR LIPQ 302150Z AUTO 05003KT 010V100 9999 -RA BKN058/// BKN080/// OVC094/// 16/15 Q1013
23:20
V
15 °C 10 km+ 8.100 ft 030° 030° 4 kt METAR LIPQ 302120Z AUTO 03004KT 9999 -RA FEW027/// OVC081/// 15/15 Q1013
22:50
V
16 °C 10 km+ 6.200 ft 040° 040° 3 kt METAR LIPQ 302050Z AUTO 04003KT 9999 SCT038/// BKN062/// BKN087/// 16/15 Q1012
22:20
V
16 °C 10 km+ 3.500 ft 050° 050° 3 kt METAR LIPQ 302020Z AUTO 05003KT 020V080 9999 FEW025/// BKN035/// BKN050/// 16/15 Q1012
21:50
M
16 °C 10 km+ 2.800 ft 080° 080° 4 kt METAR LIPQ 301950Z AUTO 08004KT 040V110 9999 OVC028/// 16/15 Q1012
21:20
V
15 °C 10 km+ 3.300 ft 040° 040° 5 kt METAR LIPQ 301920Z AUTO 04005KT 010V070 9999 -RA OVC033/// 15/15 Q1012 RERA
20:50
V
15 °C 10 km+ 5.100 ft 080° 080° 3 kt METAR LIPQ 301850Z AUTO 08003KT 350V130 9999 +RA OVC051/// 15/15 Q1012
20:20
V
16 °C 8 km 7.000 ft Var Var 2 kt METAR LIPQ 301820Z AUTO VRB02KT 8000 RA OVC070/// 16/15 Q1012
19:50
V
16 °C 10 km+ 9.400 ft Var Var 2 kt METAR LIPQ 301750Z AUTO VRB02KT 9999 -RA OVC094/// 16/15 Q1012
19:20
V
16 °C 10 km+ 10.000 ft 040° 040° 4 kt METAR LIPQ 301720Z AUTO 04004KT 9999 FEW076/// BKN100/// 16/15 Q1012
18:50
V
16 °C 10 km+ 5.200 ft 050° 050° 4 kt METAR LIPQ 301650Z AUTO 05004KT 9999 -RA FEW021/// OVC052/// 16/16 Q1012
18:20
M
17 °C 10 km+ 2.000 ft 060° 060° 3 kt METAR LIPQ 301620Z AUTO 06003KT 020V100 9999 -RA BKN020/// OVC070/// 17/16 Q1012
17:50
V
17 °C 10 km+ 4.500 ft 060° 060° 2 kt METAR LIPQ 301550Z AUTO 06002KT 9999 -RA OVC045/// 17/15 Q1012
17:20
V
17 °C 10 km+ 5.700 ft 170° 170° 4 kt METAR LIPQ 301520Z AUTO 17004KT 9999 -RA OVC057/// 17/15 Q1012 RERA
16:50
V
17 °C 10 km+ 6.200 ft 150° 150° 8 kt METAR LIPQ 301450Z AUTO 15008KT 9999 RA FEW027/// OVC062/// 17/15 Q1011
16:20
M
18 °C 10 km+ 2.800 ft 160° 160° 7 kt METAR LIPQ 301420Z AUTO 16007KT 9999 RA OVC028/// 18/15 Q1011
15:50
V
19 °C 10 km+ 8.000 ft 160° 160° 3 kt METAR LIPQ 301350Z AUTO 16003KT 9999 FEW029/// OVC080/// 19/16 Q1011
15:20
V
18 °C 10 km+ 6.800 ft 200° 200° 7 kt METAR LIPQ 301320Z AUTO 20007KT 9999 -RA OVC068/// 18/16 Q1010
14:50
V
19 °C 10 km+ 7.300 ft 190° 190° 8 kt METAR LIPQ 301250Z AUTO 19008KT 9999 -RA SCT031/// BKN073/// 19/15 Q1010
14:20
V
20 °C 10 km+ - 160° 160° 4 kt METAR LIPQ 301220Z AUTO 16004KT 9999 FEW028/// 20/16 Q1010
13:50
M
20 °C 10 km+ 2.700 ft 160° 160° 5 kt METAR LIPQ 301150Z AUTO 16005KT 9999 BKN027/// BKN130/// 20/16 Q1010
较旧的数据

我们和第三方通过cookies跟踪您在我们网站上的上网行为。如果您继续,我们认为您同意我们的cookie政策。 了解更多